Time;durP1;ratioP1;P1;durP2;ratioP2;P2;SDS_P1;SDS_P2;PMS_P1;PMS_P2;Temp;Humidity;BMP_temperature;BMP_pressure;BME280_temperature;BME280_humidity;BME280_pressure;Samples;Min_cycle;Max_cycle;Signal;HPM_P1;HPM_P2
2021/03/29 00:01:26;;;;;;;35.40;16.48;;;1.70;99.90;;;;;;6180184;23;20021;-70
2021/03/29 00:03:52;;;;;;;41.50;17.50;;;1.80;99.90;;;;;;6182192;23;20029;-70
2021/03/29 00:06:18;;;;;;;29.38;15.80;;;1.70;99.90;;;;;;6154179;23;20088;-70
2021/03/29 00:08:45;;;;;;;41.00;16.88;;;1.70;99.90;;;;;;6180826;23;20044;-70
2021/03/29 00:11:12;;;;;;;30.77;17.02;;;1.70;99.90;;;;;;6178546;23;20049;-70
2021/03/29 00:13:38;;;;;;;36.63;19.10;;;1.70;99.90;;;;;;6154181;23;20029;-70
2021/03/29 00:16:06;;;;;;;35.30;17.73;;;1.60;99.90;;;;;;6152495;23;20045;-70
2021/03/29 00:18:32;;;;;;;36.88;18.55;;;1.50;99.90;;;;;;6131620;23;20439;-70
2021/03/29 00:21:06;;;;;;;39.53;17.88;;;1.50;99.90;;;;;;6179818;23;20020;-70
2021/03/29 00:23:33;;;;;;;49.90;20.42;;;1.40;99.90;;;;;;6154054;23;20400;-70
2021/03/29 00:25:59;;;;;;;51.88;20.52;;;1.40;99.90;;;;;;6153641;23;20044;-70
2021/03/29 00:28:25;;;;;;;45.85;22.20;;;1.30;99.90;;;;;;6156258;23;20025;-70
2021/03/29 00:30:52;;;;;;;50.85;22.75;;;1.30;99.90;;;;;;6180227;23;20375;-70
2021/03/29 00:33:19;;;;;;;49.05;21.63;;;1.20;99.90;;;;;;6154201;23;20029;-70
2021/03/29 00:35:47;;;;;;;43.83;21.17;;;1.20;99.90;;;;;;6180296;23;20471;-70
2021/03/29 00:38:15;;;;;;;51.33;21.45;;;1.10;99.90;;;;;;6183084;23;20049;-69
2021/03/29 00:41:04;;;;;;;40.90;19.10;;;1.00;99.90;;;;;;6179908;23;20363;-70
2021/03/29 00:43:35;;;;;;;49.40;20.95;;;0.90;99.90;;;;;;6157477;23;20363;-69
2021/03/29 00:46:04;;;;;;;51.53;23.95;;;0.90;99.90;;;;;;6153697;23;20028;-69
2021/03/29 00:48:32;;;;;;;54.25;22.73;;;0.80;99.90;;;;;;6179659;23;20059;-69
2021/03/29 00:51:10;;;;;;;53.58;21.90;;;0.70;99.90;;;;;;6180044;23;20079;-69
2021/03/29 00:53:41;;;;;;;44.90;21.88;;;0.70;99.90;;;;;;6131928;23;20037;-69
2021/03/29 00:56:07;;;;;;;46.92;21.13;;;0.60;99.90;;;;;;6179750;23;20041;-70
2021/03/29 00:58:35;;;;;;;54.47;20.60;;;0.60;99.90;;;;;;6129263;23;20039;-69
2021/03/29 01:04:26;;;;;;;44.88;20.60;;;0.60;99.90;;;;;;6033802;23;20114;-74
2021/03/29 01:06:54;;;;;;;44.47;21.67;;;0.60;99.90;;;;;;6034775;23;20353;-74
2021/03/29 01:09:23;;;;;;;55.47;22.58;;;0.60;99.90;;;;;;6013760;23;20094;-74
2021/03/29 01:11:52;;;;;;;49.72;22.05;;;0.60;99.90;;;;;;6035022;23;20426;-74
2021/03/29 01:14:28;;;;;;;49.45;22.13;;;0.60;99.90;;;;;;6037442;23;20027;-75
2021/03/29 01:17:05;;;;;;;47.15;21.80;;;0.60;99.90;;;;;;6034631;23;20048;-74
2021/03/29 01:19:39;;;;;;;47.30;22.55;;;0.70;99.90;;;;;;6013504;23;20023;-74
2021/03/29 01:22:09;;;;;;;43.30;20.65;;;0.70;99.90;;;;;;6034816;23;20038;-74
2021/03/29 01:24:52;;;;;;;51.35;23.38;;;0.70;99.90;;;;;;6037037;23;20056;-74
2021/03/29 01:27:24;;;;;;;50.53;22.38;;;0.80;99.90;;;;;;6034855;23;20047;-74
2021/03/29 01:29:52;;;;;;;43.08;21.15;;;0.90;99.90;;;;;;6032175;23;20027;-74
2021/03/29 01:32:19;;;;;;;43.95;22.58;;;1.10;99.90;;;;;;6030841;23;20115;-74
2021/03/29 01:34:46;;;;;;;49.05;22.58;;;1.10;99.90;;;;;;6031487;23;20377;-73
2021/03/29 01:37:13;;;;;;;40.53;19.80;;;1.20;99.90;;;;;;6007162;23;20499;-76
2021/03/29 01:39:41;;;;;;;41.60;20.17;;;1.30;99.90;;;;;;6033806;23;20027;-74
2021/03/29 01:42:09;;;;;;;40.67;18.48;;;1.30;99.90;;;;;;6075750;23;20065;-74
2021/03/29 01:44:36;;;;;;;36.80;18.17;;;1.40;99.90;;;;;;6093414;23;20078;-74
2021/03/29 01:47:04;;;;;;;39.80;18.40;;;1.50;99.90;;;;;;6089795;23;20400;-73
2021/03/29 01:49:32;;;;;;;37.53;17.75;;;1.60;99.90;;;;;;6090042;23;20032;-74
2021/03/29 01:51:58;;;;;;;36.00;18.25;;;1.70;99.90;;;;;;6114249;23;20022;-73
2021/03/29 01:54:25;;;;;;;40.30;17.23;;;1.70;99.90;;;;;;6089800;23;20028;-74
2021/03/29 01:56:52;;;;;;;36.33;17.90;;;1.80;99.90;;;;;;6091650;23;20462;-74
2021/03/29 01:59:18;;;;;;;40.50;18.25;;;1.80;99.90;;;;;;6065782;23;20022;-74
2021/03/29 02:02:00;;;;;;;31.70;18.13;;;1.80;99.90;;;;;;6090910;23;20026;-73
2021/03/29 02:04:28;;;;;;;33.83;16.90;;;1.90;99.90;;;;;;6113913;23;20029;-73
2021/03/29 02:06:56;;;;;;;29.55;16.98;;;1.90;99.90;;;;;;6114235;23;20208;-73
2021/03/29 02:09:23;;;;;;;38.83;17.60;;;1.90;99.90;;;;;;6089486;23;20018;-73
2021/03/29 02:11:50;;;;;;;40.28;17.42;;;1.90;99.90;;;;;;6089735;23;20042;-73
2021/03/29 02:14:18;;;;;;;32.50;16.80;;;1.90;99.90;;;;;;6066044;23;20046;-76
2021/03/29 02:16:46;;;;;;;31.70;17.45;;;1.80;99.90;;;;;;6091245;23;20154;-73
2021/03/29 02:19:28;;;;;;;34.30;16.60;;;1.90;99.90;;;;;;6067958;23;20053;-74
2021/03/29 02:21:54;;;;;;;38.30;17.75;;;1.90;99.90;;;;;;6113985;23;20109;-73
2021/03/29 02:24:21;;;;;;;41.53;17.77;;;1.90;99.90;;;;;;6113617;23;20363;-73
2021/03/29 02:26:48;;;;;;;38.20;18.88;;;2.00;99.90;;;;;;6066121;23;20042;-73
2021/03/29 02:29:29;;;;;;;35.30;18.00;;;2.00;99.90;;;;;;6113506;23;20054;-73
2021/03/29 02:31:56;;;;;;;33.70;17.70;;;2.10;99.90;;;;;;6115562;23;20026;-73
2021/03/29 02:34:24;;;;;;;36.35;18.45;;;2.10;99.90;;;;;;6113640;23;20033;-73
2021/03/29 02:36:52;;;;;;;42.15;19.42;;;2.10;99.90;;;;;;6070060;23;20027;-73
2021/03/29 02:39:21;;;;;;;36.33;19.73;;;2.10;99.90;;;;;;6092186;23;20030;-73
2021/03/29 02:41:51;;;;;;;35.13;17.20;;;2.10;99.90;;;;;;6070452;23;20022;-73
2021/03/29 02:44:18;;;;;;;34.10;18.35;;;2.20;99.90;;;;;;6067268;23;20026;-73
2021/03/29 02:46:48;;;;;;;36.80;18.30;;;2.30;99.90;;;;;;6094988;23;20026;-75
2021/03/29 02:49:16;;;;;;;33.10;16.70;;;2.30;99.90;;;;;;6115392;23;20042;-74
2021/03/29 02:51:44;;;;;;;28.15;14.40;;;2.30;99.90;;;;;;6091781;23;20026;-73
2021/03/29 02:54:11;;;;;;;31.77;15.15;;;2.40;99.90;;;;;;6067637;23;20057;-73
2021/03/29 02:56:42;;;;;;;28.35;15.52;;;2.40;99.90;;;;;;6067577;23;20415;-73
2021/03/29 02:59:19;;;;;;;35.55;16.13;;;2.40;99.90;;;;;;6067209;23;20023;-73
2021/03/29 03:01:46;;;;;;;35.10;18.58;;;2.50;99.90;;;;;;6067796;23;20025;-73
2021/03/29 03:04:14;;;;;;;34.63;17.88;;;2.60;99.90;;;;;;6061959;23;20413;-74
2021/03/29 03:06:41;;;;;;;37.95;16.33;;;2.60;99.90;;;;;;6062308;23;20026;-75
2021/03/29 03:09:12;;;;;;;29.52;13.90;;;2.60;99.90;;;;;;6063930;23;20070;-73
2021/03/29 03:11:38;;;;;;;30.83;15.52;;;2.60;99.90;;;;;;6087885;23;20424;-73
2021/03/29 03:14:06;;;;;;;33.92;16.20;;;2.70;99.90;;;;;;6064177;23;20053;-74
2021/03/29 03:16:35;;;;;;;30.02;15.43;;;2.70;99.90;;;;;;6065083;23;20027;-76
2021/03/29 03:19:02;;;;;;;31.92;14.32;;;2.70;99.90;;;;;;6062904;23;20560;-73
2021/03/29 03:21:33;;;;;;;27.92;14.18;;;2.70;99.90;;;;;;6066671;23;20019;-73
2021/03/29 03:23:59;;;;;;;26.17;14.07;;;2.70;99.90;;;;;;6062416;23;20050;-73
2021/03/29 03:26:26;;;;;;;28.10;13.77;;;2.70;99.90;;;;;;6065525;23;20468;-73
2021/03/29 03:28:53;;;;;;;24.52;12.90;;;2.70;99.90;;;;;;6062291;23;20093;-73
2021/03/29 03:31:20;;;;;;;25.23;14.02;;;2.80;99.90;;;;;;6086055;23;20026;-74
2021/03/29 03:33:47;;;;;;;35.45;14.35;;;2.90;99.90;;;;;;6062887;23;20022;-73
2021/03/29 03:36:15;;;;;;;28.98;14.68;;;2.90;99.90;;;;;;6086863;23;20364;-73
2021/03/29 03:38:46;;;;;;;30.65;14.43;;;2.90;99.90;;;;;;6061839;23;20025;-73
2021/03/29 03:41:17;;;;;;;31.00;13.70;;;2.90;99.90;;;;;;6085908;23;20018;-73
2021/03/29 03:43:50;;;;;;;25.60;13.77;;;2.90;99.90;;;;;;6062155;23;20121;-73
2021/03/29 03:46:26;;;;;;;33.25;13.63;;;3.00;99.90;;;;;;6061882;23;20033;-73
2021/03/29 03:48:56;;;;;;;28.08;13.63;;;3.00;99.90;;;;;;6062010;23;20086;-74
2021/03/29 03:51:26;;;;;;;29.40;15.18;;;3.00;99.90;;;;;;6063493;23;20345;-75
2021/03/29 03:53:53;;;;;;;25.67;12.90;;;3.10;99.90;;;;;;6062163;23;20492;-75
2021/03/29 03:56:20;;;;;;;26.75;13.00;;;3.10;99.90;;;;;;6086146;23;20027;-76
2021/03/29 03:58:47;;;;;;;27.25;14.18;;;3.10;99.90;;;;;;6061524;23;20050;-74
2021/03/29 04:01:14;;;;;;;29.15;14.52;;;3.10;99.90;;;;;;6064731;23;20027;-75
2021/03/29 04:03:40;;;;;;;29.77;14.40;;;3.20;99.90;;;;;;6061449;23;20050;-75
2021/03/29 04:06:06;;;;;;;35.60;17.05;;;3.20;99.90;;;;;;6066953;23;20412;-75
2021/03/29 04:08:32;;;;;;;36.63;17.25;;;3.20;99.90;;;;;;6062177;23;20042;-75
2021/03/29 04:11:00;;;;;;;38.60;18.60;;;3.30;99.90;;;;;;6085805;23;20022;-75
2021/03/29 04:13:30;;;;;;;37.45;18.33;;;3.30;99.90;;;;;;6063673;23;20350;-75
2021/03/29 04:15:59;;;;;;;35.55;18.17;;;3.30;99.90;;;;;;6085642;23;20434;-75
2021/03/29 04:18:26;;;;;;;40.92;18.15;;;3.30;99.90;;;;;;6063193;23;20023;-75
2021/03/29 04:20:53;;;;;;;40.78;18.20;;;3.40;99.90;;;;;;6061584;23;20031;-75
2021/03/29 04:23:22;;;;;;;36.60;17.42;;;3.50;99.90;;;;;;6061667;23;20424;-73
2021/03/29 04:25:48;;;;;;;37.05;17.38;;;3.40;99.90;;;;;;6063632;23;20078;-73
2021/03/29 04:28:15;;;;;;;31.40;15.95;;;3.40;99.90;;;;;;6061416;23;20033;-75
2021/03/29 04:30:41;;;;;;;33.53;17.02;;;3.50;99.90;;;;;;6064606;23;20316;-75
2021/03/29 04:33:07;;;;;;;38.78;17.52;;;3.40;99.90;;;;;;6061966;23;20058;-75
2021/03/29 04:35:34;;;;;;;38.65;18.02;;;3.40;99.90;;;;;;6058334;23;20468;-68
2021/03/29 04:38:00;;;;;;;34.95;17.05;;;3.40;99.90;;;;;;6084268;23;20053;-66
2021/03/29 04:40:27;;;;;;;38.80;18.05;;;3.50;99.90;;;;;;6061640;23;20569;-67
2021/03/29 04:42:54;;;;;;;35.40;18.45;;;3.50;99.90;;;;;;6062836;23;20030;-69
2021/03/29 04:45:22;;;;;;;40.97;19.40;;;3.60;99.90;;;;;;6064625;23;20026;-66
2021/03/29 04:47:48;;;;;;;45.88;20.00;;;3.60;99.90;;;;;;6061236;23;20046;-68
2021/03/29 04:50:16;;;;;;;42.88;19.63;;;3.70;99.90;;;;;;6065460;23;20033;-68
2021/03/29 04:52:42;;;;;;;39.35;18.63;;;3.70;99.90;;;;;;6085112;23;20137;-67
2021/03/29 04:55:09;;;;;;;40.55;19.88;;;3.80;99.90;;;;;;6062991;23;20022;-66
2021/03/29 04:57:35;;;;;;;34.60;18.73;;;3.90;99.90;;;;;;6084737;23;20023;-67
2021/03/29 05:00:03;;;;;;;41.17;18.00;;;3.90;99.90;;;;;;6085370;23;20036;-66
2021/03/29 05:02:29;;;;;;;40.22;19.10;;;4.00;99.90;;;;;;6084819;23;20083;-67
2021/03/29 05:04:55;;;;;;;36.13;18.98;;;4.10;99.90;;;;;;6085398;23;20023;-68
2021/03/29 05:07:21;;;;;;;41.47;18.63;;;4.20;99.90;;;;;;6061094;23;20086;-69
2021/03/29 05:09:47;;;;;;;42.88;19.55;;;4.20;99.90;;;;;;6061402;23;20460;-69
2021/03/29 05:12:23;;;;;;;39.08;18.10;;;4.30;99.90;;;;;;6085044;23;20074;-69
2021/03/29 05:14:50;;;;;;;44.65;18.60;;;4.50;99.90;;;;;;6064995;23;20348;-69
2021/03/29 05:17:17;;;;;;;42.75;18.95;;;4.60;99.90;;;;;;6062630;23;20054;-69
2021/03/29 05:19:43;;;;;;;41.95;20.40;;;4.80;99.30;;;;;;6065620;23;20027;-72
2021/03/29 05:22:10;;;;;;;49.83;19.77;;;5.00;98.60;;;;;;6084665;23;20025;-68
2021/03/29 05:24:36;;;;;;;44.05;18.98;;;5.30;98.10;;;;;;6062537;23;20023;-68
2021/03/29 05:27:05;;;;;;;40.22;17.77;;;5.60;97.50;;;;;;6062823;23;20018;-74
2021/03/29 05:29:52;;;;;;;35.40;18.20;;;5.90;96.60;;;;;;6062981;23;20046;-72
2021/03/29 05:32:20;;;;;;;37.47;17.45;;;6.20;96.00;;;;;;6062384;23;20026;-73
2021/03/29 05:34:53;;;;;;;35.85;16.58;;;6.60;94.70;;;;;;6060853;23;20031;-72
2021/03/29 05:37:20;;;;;;;43.25;17.90;;;7.00;93.50;;;;;;6061083;23;20026;-73
2021/03/29 05:39:47;;;;;;;32.78;16.55;;;7.20;91.80;;;;;;6060784;23;20069;-77
2021/03/29 05:42:14;;;;;;;33.03;15.50;;;7.50;89.90;;;;;;6085191;23;20115;-73
2021/03/29 05:44:40;;;;;;;25.52;14.85;;;7.70;87.20;;;;;;6062378;23;20546;-73
2021/03/29 05:47:06;;;;;;;29.10;15.07;;;7.90;83.40;;;;;;6060825;23;20536;-74
2021/03/29 05:49:33;;;;;;;34.85;16.27;;;8.00;82.30;;;;;;6064769;23;20033;-66
2021/03/29 05:52:00;;;;;;;35.30;16.23;;;8.20;79.30;;;;;;6062177;23;20029;-67
2021/03/29 05:54:27;;;;;;;33.38;15.73;;;8.40;78.30;;;;;;6063700;23;20027;-66
2021/03/29 05:56:54;;;;;;;28.08;15.43;;;8.60;77.00;;;;;;6062061;23;20484;-65
2021/03/29 05:59:26;;;;;;;33.17;15.23;;;8.80;76.00;;;;;;6061130;23;20023;-64
2021/03/29 06:01:55;;;;;;;28.80;16.13;;;9.10;73.80;;;;;;6084945;23;20015;-64
2021/03/29 06:04:47;;;;;;;28.08;15.00;;;9.40;71.50;;;;;;6090873;23;20026;-64
2021/03/29 06:07:23;;;;;;;26.73;14.05;;;9.90;68.50;;;;;;6090800;23;20397;-64
2021/03/29 06:09:50;;;;;;;28.33;15.30;;;10.90;65.70;;;;;;6116324;23;20527;-63
2021/03/29 06:12:19;;;;;;;27.33;14.88;;;12.60;61.20;;;;;;6089608;23;20079;-70
2021/03/29 06:14:47;;;;;;;26.85;14.02;;;14.20;55.20;;;;;;6117206;23;20105;-69
2021/03/29 06:17:19;;;;;;;24.65;13.38;;;15.40;51.20;;;;;;6064822;23;20030;-68
2021/03/29 06:19:47;;;;;;;;;;;16.20;48.80;;;;;;6118136;23;20030;-70
2021/03/29 06:22:31;;;;;;;28.50;13.95;;;16.50;46.70;;;;;;6089673;23;20015;-69
2021/03/29 06:25:16;;;;;;;24.30;13.27;;;15.70;47.80;;;;;;6090354;23;20468;-68
2021/03/29 06:27:56;;;;;;;22.80;13.80;;;14.60;51.00;;;;;;6065167;23;20461;-69
2021/03/29 06:30:30;;;;;;;30.30;14.98;;;13.80;52.40;;;;;;6113845;23;20019;-68
2021/03/29 06:33:08;;;;;;;30.60;14.30;;;12.90;54.20;;;;;;6091031;23;20023;-69
2021/03/29 06:35:42;;;;;;;28.63;15.63;;;12.50;55.70;;;;;;6114068;23;20019;-68
2021/03/29 06:38:13;;;;;;;34.63;15.95;;;12.40;56.40;;;;;;6067389;23;20026;-64
2021/03/29 06:40:43;;;;;;;35.88;15.13;;;12.60;57.30;;;;;;6090602;23;20111;-63
2021/03/29 06:43:28;;;;;;;35.63;15.30;;;12.90;56.00;;;;;;6113330;23;20066;-63
2021/03/29 06:46:05;;;;;;;27.40;14.23;;;13.40;54.50;;;;;;6090551;23;20047;-64
2021/03/29 06:48:39;;;;;;;26.05;13.90;;;13.80;52.20;;;;;;6090895;23;20026;-64
2021/03/29 06:51:14;;;;;;;22.52;13.68;;;14.70;50.90;;;;;;6090744;23;20019;-64
2021/03/29 06:53:52;;;;;;;23.38;14.18;;;15.70;48.60;;;;;;6094238;23;20105;-64
2021/03/29 06:56:32;;;;;;;26.48;13.40;;;16.80;46.90;;;;;;6090285;23;20464;-68
2021/03/29 06:59:20;;;;;;;18.73;12.00;;;18.10;44.10;;;;;;6067705;23;20031;-69
2021/03/29 07:01:49;;;;;;;23.02;12.43;;;18.60;43.50;;;;;;6065249;23;20040;-65
2021/03/29 07:04:23;;;;;;;22.88;12.70;;;18.70;42.50;;;;;;6090724;23;20173;-66
2021/03/29 07:06:50;;;;;;;28.80;12.85;;;18.60;42.10;;;;;;6090529;23;20050;-67
2021/03/29 07:09:17;;;;;;;29.80;12.90;;;19.20;41.50;;;;;;6093287;23;20029;-72
2021/03/29 07:11:45;;;;;;;23.30;13.15;;;20.20;39.90;;;;;;6090609;23;20022;-69
2021/03/29 07:14:12;;;;;;;25.75;13.25;;;21.70;37.80;;;;;;6115527;23;20026;-64
2021/03/29 07:16:40;;;;;;;27.95;15.02;;;22.90;35.80;;;;;;6090498;23;20054;-65
2021/03/29 07:19:08;;;;;;;24.52;13.55;;;23.50;35.30;;;;;;6090467;23;20142;-70
2021/03/29 07:21:36;;;;;;;23.10;12.30;;;23.90;34.50;;;;;;6091449;23;20046;-71
2021/03/29 07:24:13;;;;;;;19.90;12.40;;;23.60;34.60;;;;;;6114895;23;20507;-68
2021/03/29 07:26:43;;;;;;;21.65;11.68;;;23.20;35.00;;;;;;6092015;23;20014;-68
2021/03/29 07:29:28;;;;;;;24.80;12.88;;;23.20;35.20;;;;;;6115066;23;20026;-68
2021/03/29 07:31:56;;;;;;;25.90;12.20;;;24.30;34.40;;;;;;6092507;23;20041;-66
2021/03/29 07:34:41;;;;;;;18.38;11.70;;;25.70;33.20;;;;;;6089716;23;20401;-65
2021/03/29 07:37:57;;;;;;;20.67;10.07;;;25.50;33.20;;;;;;6091675;23;20030;-65
2021/03/29 07:40:23;;;;;;;20.17;10.15;;;25.20;32.90;;;;;;6083434;23;20022;-72
2021/03/29 07:42:53;;;;;;;18.77;9.75;;;25.20;33.10;;;;;;6086010;23;20475;-69
2021/03/29 07:45:47;;;;;;;22.77;11.05;;;24.90;33.40;;;;;;6090641;23;20026;-71
2021/03/29 07:48:16;;;;;;;19.77;10.30;;;24.80;33.60;;;;;;6057060;23;20046;-69
2021/03/29 07:50:42;;;;;;;14.68;9.45;;;25.30;33.10;;;;;;6088741;23;20030;-69
2021/03/29 07:53:22;;;;;;;20.20;10.82;;;26.00;32.40;;;;;;6087187;23;20033;-74
2021/03/29 07:55:54;;;;;;;17.92;10.23;;;26.20;32.50;;;;;;6064255;23;20026;-70
2021/03/29 07:58:26;;;;;;;15.80;10.15;;;26.50;32.00;;;;;;6063859;23;20372;-69
2021/03/29 08:01:04;;;;;;;21.30;9.35;;;26.50;32.90;;;;;;6087300;23;20030;-65
2021/03/29 08:03:39;;;;;;;15.02;9.13;;;26.40;32.30;;;;;;6089316;23;20066;-70
2021/03/29 08:06:07;;;;;;;13.23;9.40;;;27.50;31.60;;;;;;6088851;23;20543;-69
2021/03/29 08:08:40;;;;;;;13.82;9.02;;;28.70;30.90;;;;;;6063756;23;20066;-72
2021/03/29 08:11:20;;;;;;;13.43;8.35;;;27.90;30.80;;;;;;6087714;23;20023;-67
2021/03/29 08:13:48;;;;;;;12.38;8.30;;;26.30;32.30;;;;;;6111972;23;20098;-71
2021/03/29 08:16:28;;;;;;;13.85;8.98;;;24.60;34.00;;;;;;6088624;23;20034;-72
2021/03/29 08:19:24;;;;;;;14.38;10.77;;;23.80;34.60;;;;;;6089309;23;20097;-71
2021/03/29 08:21:59;;;;;;;16.75;9.05;;;23.10;36.00;;;;;;6066969;23;20026;-68
2021/03/29 08:24:33;;;;;;;15.38;9.07;;;22.10;37.60;;;;;;6086863;23;20022;-68
2021/03/29 08:27:04;;;;;;;14.35;9.10;;;21.70;38.60;;;;;;6114345;23;20060;-70
2021/03/29 08:29:35;;;;;;;20.50;11.25;;;21.50;38.90;;;;;;6111546;23;20026;-70
2021/03/29 08:32:18;;;;;;;16.98;8.25;;;20.60;39.20;;;;;;6092266;23;20568;-71
2021/03/29 08:35:05;;;;;;;20.17;9.38;;;20.40;40.10;;;;;;6086086;23;20727;-68
2021/03/29 08:37:34;;;;;;;16.00;8.25;;;20.20;40.50;;;;;;6091056;23;20341;-69
2021/03/29 08:40:06;;;;;;;16.88;7.32;;;20.10;40.70;;;;;;6088572;23;20050;-71
2021/03/29 08:42:34;;;;;;;19.17;8.53;;;19.90;41.20;;;;;;6113608;23;20058;-72
2021/03/29 08:45:03;;;;;;;21.58;7.85;;;19.80;41.50;;;;;;6111397;23;20046;-75
2021/03/29 08:47:29;;;;;;;16.85;8.23;;;19.30;41.90;;;;;;6114364;23;20033;-72
2021/03/29 08:49:58;;;;;;;9.63;6.53;;;19.30;42.30;;;;;;6086927;23;20029;-72
2021/03/29 08:52:37;;;;;;;12.68;6.50;;;18.60;42.70;;;;;;6084122;23;20114;-70
2021/03/29 08:55:04;;;;;;;14.98;7.45;;;18.60;42.80;;;;;;6088223;23;20049;-72
2021/03/29 08:57:32;;;;;;;16.88;7.53;;;19.10;42.00;;;;;;6091414;23;20023;-72
2021/03/29 09:00:00;;;;;;;15.10;8.07;;;19.70;41.30;;;;;;6091856;23;20077;-74
2021/03/29 09:02:27;;;;;;;15.10;7.32;;;20.00;41.00;;;;;;6065986;23;20022;-76
2021/03/29 09:04:59;;;;;;;17.08;7.50;;;20.90;40.00;;;;;;6114094;23;20022;-72
2021/03/29 09:07:47;;;;;;;14.57;7.10;;;22.10;38.20;;;;;;6094040;23;20057;-72
2021/03/29 09:10:33;;;;;;;14.50;6.15;;;22.50;37.70;;;;;;6091192;23;20061;-72
2021/03/29 09:13:02;;;;;;;11.25;5.78;;;22.90;36.70;;;;;;6115690;23;20022;-72
2021/03/29 09:15:34;;;;;;;12.50;6.38;;;22.30;37.00;;;;;;6091320;23;20022;-76
2021/03/29 09:18:03;;;;;;;18.52;5.90;;;21.30;37.90;;;;;;6089813;23;20026;-75
2021/03/29 09:20:39;;;;;;;8.90;5.90;;;21.00;38.70;;;;;;6089856;23;20542;-76
2021/03/29 09:23:07;;;;;;;12.00;4.40;;;21.00;38.70;;;;;;6117189;23;20023;-76
2021/03/29 09:25:38;;;;;;;8.10;4.70;;;20.60;38.50;;;;;;6091834;23;20117;-75
2021/03/29 09:28:10;;;;;;;11.60;5.85;;;20.20;39.30;;;;;;6117481;23;20029;-75
2021/03/29 09:30:36;;;;;;;7.93;4.95;;;20.10;39.60;;;;;;6089497;23;20018;-75
2021/03/29 09:33:03;;;;;;;8.45;4.90;;;20.70;38.80;;;;;;6114222;23;20045;-75
2021/03/29 09:35:29;;;;;;;11.60;5.65;;;21.90;37.60;;;;;;6114306;23;20022;-75
2021/03/29 09:37:56;;;;;;;9.70;5.00;;;23.80;35.50;;;;;;6067932;23;20026;-74
2021/03/29 09:40:22;;;;;;;6.53;4.45;;;25.70;33.60;;;;;;6089612;23;20029;-74
2021/03/29 09:42:53;;;;;;;8.02;4.78;;;26.90;32.10;;;;;;6065364;23;20365;-74
2021/03/29 09:45:26;;;;;;;3.55;2.25;;;26.30;32.50;;;;;;6089449;23;20050;-74
2021/03/29 09:48:09;;;;;;;4.32;2.53;;;26.60;32.30;;;;;;6114147;23;20030;-74
2021/03/29 09:50:41;;;;;;;5.15;2.75;;;28.10;31.10;;;;;;6089689;23;20022;-73
2021/03/29 09:53:14;;;;;;;6.90;2.05;;;29.50;30.00;;;;;;6093954;23;20102;-73
2021/03/29 09:55:52;;;;;;;4.88;1.98;;;30.90;29.70;;;;;;6089571;23;20451;-74
2021/03/29 09:58:29;;;;;;;2.40;2.20;;;32.40;28.70;;;;;;6113566;23;20023;-74
2021/03/29 10:01:01;;;;;;;4.15;2.30;;;32.40;28.60;;;;;;6065894;23;20033;-73
2021/03/29 10:03:28;;;;;;;6.53;2.92;;;33.00;28.40;;;;;;6090661;23;20023;-73
2021/03/29 10:05:55;;;;;;;4.68;4.03;;;33.00;28.20;;;;;;6089599;23;20057;-73
2021/03/29 10:08:33;;;;;;;10.23;5.05;;;31.50;28.80;;;;;;6115436;23;20023;-73
2021/03/29 10:11:06;;;;;;;6.30;3.63;;;30.40;29.20;;;;;;6065539;23;20471;-73
2021/03/29 10:13:40;;;;;;;8.88;3.65;;;29.10;30.00;;;;;;6091363;23;20030;-73
2021/03/29 10:16:24;;;;;;;5.05;3.75;;;27.90;31.00;;;;;;6089348;23;20019;-72
2021/03/29 10:19:07;;;;;;;9.13;3.60;;;28.10;31.10;;;;;;6115516;23;20456;-72
2021/03/29 10:21:54;;;;;;;10.35;3.55;;;28.20;30.90;;;;;;6113951;23;20355;-72
2021/03/29 10:24:20;;;;;;;7.88;5.13;;;26.60;32.20;;;;;;6065391;23;20385;-72
2021/03/29 10:26:54;;;;;;;6.60;3.25;;;25.70;33.10;;;;;;6113960;23;20052;-72
2021/03/29 10:29:39;;;;;;;4.45;3.40;;;25.80;33.00;;;;;;6092062;23;20102;-72
2021/03/29 10:32:09;;;;;;;10.90;4.05;;;26.90;32.30;;;;;;6091082;23;20368;-72
2021/03/29 10:34:38;;;;;;;5.07;3.50;;;27.70;31.60;;;;;;6091187;23;20027;-72
2021/03/29 10:37:34;;;;;;;11.73;7.53;;;27.20;31.70;;;;;;6113734;23;20049;-72
2021/03/29 10:40:01;;;;;;;7.47;3.92;;;25.80;33.20;;;;;;6114825;23;20046;-72
2021/03/29 10:42:31;;;;;;;10.50;3.17;;;24.60;34.60;;;;;;6090903;23;20049;-72
2021/03/29 10:44:57;;;;;;;9.48;3.50;;;24.20;34.90;;;;;;6090701;23;20050;-72
2021/03/29 10:47:24;;;;;;;9.82;3.75;;;24.50;35.00;;;;;;6088904;23;20022;-72
2021/03/29 10:49:51;;;;;;;7.75;4.00;;;24.50;34.60;;;;;;6092516;23;20018;-72
2021/03/29 10:52:18;;;;;;;6.35;3.75;;;23.90;35.50;;;;;;6113681;23;20428;-72
2021/03/29 10:54:44;;;;;;;6.63;3.63;;;22.80;36.90;;;;;;6065426;23;20033;-72
2021/03/29 10:57:10;;;;;;;7.72;3.72;;;22.40;37.00;;;;;;6092283;23;20073;-72
2021/03/29 10:59:36;;;;;;;9.52;4.78;;;22.50;37.40;;;;;;6115684;23;20018;-71
2021/03/29 11:02:10;;;;;;;10.80;6.25;;;22.20;37.40;;;;;;6091130;23;20101;-71
2021/03/29 11:04:36;;;;;;;8.05;4.68;;;21.70;38.20;;;;;;6067391;23;20022;-72
2021/03/29 11:07:03;;;;;;;14.90;5.28;;;21.60;38.80;;;;;;6091345;23;20033;-72
2021/03/29 11:09:29;;;;;;;8.05;4.30;;;21.40;38.80;;;;;;6092385;23;20022;-74
2021/03/29 11:11:55;;;;;;;10.32;4.18;;;21.00;39.20;;;;;;6092714;23;20062;-72
2021/03/29 11:14:21;;;;;;;14.23;5.47;;;20.70;40.10;;;;;;6092707;23;20033;-72
2021/03/29 11:16:54;;;;;;;6.72;4.95;;;20.20;41.50;;;;;;6092121;23;20058;-72
2021/03/29 11:19:21;;;;;;;9.18;4.20;;;19.80;41.70;;;;;;6117405;23;20054;-71
2021/03/29 11:21:48;;;;;;;9.38;4.63;;;19.50;42.30;;;;;;6092381;23;20027;-72
2021/03/29 11:24:15;;;;;;;12.57;4.80;;;19.20;42.60;;;;;;6092335;23;20061;-71
2021/03/29 11:26:41;;;;;;;11.88;5.32;;;18.80;43.40;;;;;;6091105;23;20101;-72
2021/03/29 11:29:08;;;;;;;15.80;7.25;;;18.20;44.30;;;;;;6093350;23;20030;-71
2021/03/29 11:31:39;;;;;;;12.23;5.03;;;17.80;45.80;;;;;;6066759;23;20472;-72
2021/03/29 11:34:05;;;;;;;12.57;5.05;;;17.30;46.40;;;;;;6114938;23;20037;-72
2021/03/29 11:36:31;;;;;;;11.02;5.25;;;17.10;47.00;;;;;;6115307;23;20054;-70
2021/03/29 11:38:57;;;;;;;11.05;4.75;;;17.00;47.20;;;;;;6070505;23;20030;-72
2021/03/29 11:41:24;;;;;;;5.03;4.20;;;16.60;48.10;;;;;;6092722;23;20019;-70
2021/03/29 11:43:50;;;;;;;10.07;4.90;;;16.30;48.50;;;;;;6066824;23;20022;-71
2021/03/29 11:46:17;;;;;;;7.60;5.32;;;16.10;49.40;;;;;;6115276;23;20061;-69
2021/03/29 11:48:44;;;;;;;11.57;6.55;;;16.00;50.30;;;;;;6113777;23;20057;-67
2021/03/29 11:51:11;;;;;;;9.95;5.53;;;16.00;51.70;;;;;;6088832;23;20042;-66
2021/03/29 11:53:37;;;;;;;10.95;6.10;;;16.10;52.50;;;;;;6115337;23;20073;-67
2021/03/29 11:56:04;;;;;;;14.45;7.70;;;15.90;53.00;;;;;;6063789;23;20104;-68
2021/03/29 11:58:30;;;;;;;16.77;8.05;;;15.90;54.40;;;;;;6112353;23;20399;-67
2021/03/29 12:01:00;;;;;;;22.45;8.27;;;15.80;54.50;;;;;;6091238;23;20109;-66
2021/03/29 12:03:35;;;;;;;20.52;8.75;;;15.80;53.70;;;;;;6091941;23;20018;-66
2021/03/29 12:06:08;;;;;;;12.00;7.90;;;15.90;53.30;;;;;;6114938;23;20483;-66
2021/03/29 12:08:43;;;;;;;9.13;6.68;;;16.00;53.40;;;;;;6068169;23;20081;-71
2021/03/29 12:13:57;;;;;;;9.82;6.35;;;16.50;54.30;;;;;;6092210;23;20105;-67
2021/03/29 12:16:26;;;;;;;15.35;7.88;;;16.40;53.50;;;;;;6114404;23;20108;-68
2021/03/29 12:18:56;;;;;;;15.60;7.20;;;16.50;55.00;;;;;;6117068;23;20037;-66
2021/03/29 12:21:30;;;;;;;12.23;6.25;;;16.20;54.10;;;;;;6090311;23;20022;-67
2021/03/29 12:23:59;;;;;;;10.65;6.53;;;16.10;54.40;;;;;;6095008;23;20405;-70
2021/03/29 12:26:27;;;;;;;10.95;5.82;;;16.10;57.40;;;;;;6091903;23;20089;-66
2021/03/29 12:28:54;;;;;;;10.90;6.10;;;16.30;56.00;;;;;;6091858;23;20077;-67
2021/03/29 12:31:21;;;;;;;9.55;5.75;;;16.40;54.20;;;;;;6114336;23;20463;-67
2021/03/29 12:33:49;;;;;;;12.60;5.95;;;16.20;53.70;;;;;;6091717;23;20032;-66
2021/03/29 12:36:16;;;;;;;14.27;7.25;;;15.90;55.30;;;;;;6114344;23;20022;-66
2021/03/29 12:39:04;;;;;;;12.63;5.80;;;15.80;57.10;;;;;;6092008;23;20762;-68
2021/03/29 12:41:37;;;;;;;11.10;4.55;;;15.50;57.30;;;;;;6089368;23;20098;-66
2021/03/29 12:44:09;;;;;;;15.07;5.70;;;15.20;59.40;;;;;;6093888;23;20409;-74
2021/03/29 12:46:37;;;;;;;;;;;15.20;59.30;;;;;;6091960;23;20046;-70
2021/03/29 12:49:08;;;;;;;12.55;4.85;;;15.20;60.10;;;;;;6094427;23;19980;-70
2021/03/29 12:51:34;;;;;;;12.32;5.90;;;15.10;60.50;;;;;;6089872;23;20364;-70
2021/03/29 12:54:09;;;;;;;11.32;6.80;;;15.00;60.10;;;;;;6090417;23;20023;-74
2021/03/29 12:56:35;;;;;;;18.98;7.90;;;14.90;65.80;;;;;;6114259;23;20046;-67
2021/03/29 12:59:07;;;;;;;11.93;5.85;;;14.80;68.70;;;;;;6091484;23;20403;-69
2021/03/29 13:01:36;;;;;;;13.90;5.88;;;14.40;64.10;;;;;;6091578;23;20505;-67